METAR AND TAF INFORMATION
METAR FOR YTRE
ADDS - METARS form results

(0710 UTC 27 May 2019)
Data provider http://aviationweather.gov/metar/data/
 
METAR text: YTRE 270706Z AUTO 27015G25KT 9999 // OVC090 19/01 Q1009
Conditions at: YTRE (TAREE AIRPORT , AU) observed 0706 UTC 27 May 2019
Temperature: 19.0°C (66°F)
Dewpoint: 1.0°C (34°F) [RH = 30%]
Pressure (altimeter): 29.79 inches Hg (1009.0 mb)
Winds: from the W (270 degrees) at 17 MPH (15 knots; 7.7 m/s)
gusting to 29 MPH (25 knots; 12.9 m/s)
Visibility: 6 or more miles (10+ km)
Ceiling: 9000 feet AGL
Clouds: overcast cloud deck at 9000 feet AGL
Weather: no significant weather observed at this time

METAR text: YTRE 270700Z AUTO 28013G25KT 9999 // OVC092 19/00 Q1008
Conditions at: YTRE (TAREE AIRPORT , AU) observed 0700 UTC 27 May 2019
Temperature: 19.0°C (66°F)
Dewpoint: 0.0°C (32°F) [RH = 28%]
Pressure (altimeter): 29.76 inches Hg (1008.0 mb)
Winds: from the W (280 degrees) at 15 MPH (13 knots; 6.7 m/s)
gusting to 29 MPH (25 knots; 12.9 m/s)
Visibility: 6 or more miles (10+ km)
Ceiling: 9200 feet AGL
Clouds: overcast cloud deck at 9200 feet AGL
Weather: no significant weather observed at this time

METAR text: YTRE 270623Z AUTO 27015G26KT 9999 // SCT100 20/M01 Q1008
Conditions at: YTRE (TAREE AIRPORT , AU) observed 0623 UTC 27 May 2019
Temperature: 20.0°C (68°F)
Dewpoint: -1.0°C (30°F) [RH = 24%]
Pressure (altimeter): 29.76 inches Hg (1008.0 mb)
Winds: from the W (270 degrees) at 17 MPH (15 knots; 7.7 m/s)
gusting to 30 MPH (26 knots; 13.4 m/s)
Visibility: 6 or more miles (10+ km)
Ceiling: at least 12,000 feet AGL
Clouds: scattered clouds at 10000 feet AGL
Weather: no significant weather observed at this time

Forecast for: YTRE (TAREE AIRPORT , AU)
Text: TAF YTRE 270658Z 2708/2720 26015G27KT CAVOK
Forecast period: 0800 to 1000 UTC 27 May 2019
Forecast type: FROM: standard forecast or significant change
Winds: from the W (260 degrees) at 17 MPH (15 knots; 7.7 m/s)
gusting to 31 MPH (27 knots; 13.9 m/s)
Visibility: 6 or more miles 10+ km)
Ceiling: unknown
Clouds: missing
Weather: NSW  (no significant weather)
Text: FM271000 26010KT CAVOK
Forecast period: 1000 to 2000 UTC 27 May 2019
Forecast type: FROM: standard forecast or significant change
Winds: from the W (260 degrees) at 12 MPH (10 knots; 5.1 m/s)
Visibility: 6 or more miles 10+ km)
Ceiling: unknown
Clouds: missing
Weather: NSW  (no significant weather)

 AIRPORT MAP

 RUNWAY INFORMATION
Runway 04 Runway length 4934 ft Runway width 98 ft
Runway elevation 32 ft Runway displaced threshold 377 ft Runway heading 45
Runway 22 Runway length 4934 ft Runway width 98 ft
Runway elevation 7 ft Runway displaced threshold 0 ft Runway heading 225
Runway 12 Runway length 1850 ft Runway width 60 ft
Runway elevation 34 ft Runway displaced threshold 308 ft Runway heading 138
Runway 30 Runway length 1850 ft Runway width 60 ft
Runway elevation 32 ft Runway displaced threshold 0 ft Runway heading 318

 AIRPORT FREQUENCIES
Type CTAF Name CTAF Frequency 118.1 MHZ
Type FSS Name BRISBANE C Frequency 120.55 MHZ

 AIRPORT NEAR NAVIGATION AIDS
Type NDB Name Taree Frequency 371 KHZ



The South Africal Virtual Air Force